createdAt,value
2023-05-10T00:01:27.951Z,2.30
2023-05-10T00:03:58.082Z,2.17
2023-05-10T00:06:28.158Z,2.72
2023-05-10T00:08:58.146Z,2.55
2023-05-10T00:11:28.269Z,2.30
2023-05-10T00:14:00.837Z,2.80
2023-05-10T00:16:30.913Z,2.45
2023-05-10T00:19:00.966Z,2.80
2023-05-10T00:21:31.345Z,2.55
2023-05-10T00:24:01.433Z,2.70
2023-05-10T00:26:31.444Z,2.55
2023-05-10T00:29:04.414Z,2.50
2023-05-10T00:31:34.399Z,2.47
2023-05-10T00:34:04.463Z,2.70
2023-05-10T00:36:34.377Z,2.78
2023-05-10T00:39:04.752Z,2.70
2023-05-10T00:41:34.853Z,2.53
2023-05-10T00:44:08.163Z,2.50
2023-05-10T00:46:38.506Z,3.00
2023-05-10T00:49:08.609Z,2.60
2023-05-10T00:51:38.656Z,2.60
2023-05-10T00:54:09.346Z,2.60
2023-05-10T00:56:39.522Z,2.40
2023-05-10T00:59:12.209Z,2.70
2023-05-10T01:01:42.314Z,2.65
2023-05-10T01:04:12.920Z,3.20
2023-05-10T01:06:42.965Z,2.65
2023-05-10T01:09:12.937Z,2.58
2023-05-10T01:11:43.647Z,2.83
2023-05-10T01:14:16.407Z,3.20
2023-05-10T01:16:47.070Z,2.70
2023-05-10T01:19:21.468Z,2.50
2023-05-10T01:21:55.390Z,2.58
2023-05-10T01:24:53.469Z,2.80
2023-05-10T01:27:47.699Z,2.60
2023-05-10T01:30:44.318Z,2.58
2023-05-10T01:33:20.439Z,2.70
2023-05-10T01:35:57.785Z,2.90
2023-05-10T01:38:44.356Z,2.83
2023-05-10T01:41:19.067Z,2.60
2023-05-10T01:43:55.494Z,2.67
2023-05-10T01:46:31.765Z,2.50
2023-05-10T01:49:05.237Z,2.50
2023-05-10T01:51:39.720Z,2.67
2023-05-10T01:54:10.050Z,2.72
2023-05-10T01:56:41.438Z,2.95
2023-05-10T01:59:15.675Z,3.20
2023-05-10T02:01:46.321Z,3.38
2023-05-10T02:04:21.158Z,2.85
2023-05-10T02:06:52.059Z,3.03
2023-05-10T02:09:24.459Z,2.40
2023-05-10T02:11:54.500Z,3.13
2023-05-10T02:14:25.672Z,2.75
2023-05-10T02:16:57.232Z,3.05
2023-05-10T02:19:30.450Z,3.50
2023-05-10T02:22:01.539Z,2.80
2023-05-10T02:24:32.668Z,2.90
2023-05-10T02:27:04.830Z,2.72
2023-05-10T02:29:35.783Z,3.17
2023-05-10T02:32:07.450Z,3.00
2023-05-10T02:34:40.629Z,2.97
2023-05-10T02:37:11.362Z,2.83
2023-05-10T02:39:44.909Z,3.10
2023-05-10T02:42:18.744Z,2.88
2023-05-10T02:44:52.383Z,3.40
2023-05-10T02:47:22.737Z,3.60
2023-05-10T02:49:55.305Z,2.70
2023-05-10T02:52:29.285Z,2.88
2023-05-10T02:55:00.329Z,2.47
2023-05-10T02:57:32.929Z,2.85
2023-05-10T03:00:04.239Z,2.72
2023-05-10T03:02:34.641Z,2.80
2023-05-10T03:05:07.856Z,2.90
2023-05-10T03:07:38.604Z,3.17
2023-05-10T03:10:10.194Z,3.20
2023-05-10T03:12:52.434Z,2.90
2023-05-10T03:15:33.149Z,3.15
2023-05-10T03:18:09.081Z,3.28
2023-05-10T03:20:46.830Z,2.95
2023-05-10T03:23:25.533Z,3.20
2023-05-10T03:25:56.526Z,2.92
2023-05-10T03:28:29.790Z,3.30
2023-05-10T03:31:00.457Z,2.70
2023-05-10T03:33:30.700Z,2.80
2023-05-10T03:36:03.361Z,3.28
2023-05-10T03:38:33.392Z,3.17
2023-05-10T03:41:03.324Z,2.90
2023-05-10T03:43:33.440Z,2.92
2023-05-10T03:46:05.673Z,3.13
2023-05-10T03:48:36.302Z,2.97
2023-05-10T03:51:09.123Z,3.20
2023-05-10T03:53:39.499Z,3.03
2023-05-10T03:56:09.817Z,2.97
2023-05-10T03:58:39.999Z,2.95
2023-05-10T04:01:10.117Z,3.08
2023-05-10T04:03:40.323Z,3.33
2023-05-10T04:06:13.333Z,2.75
2023-05-10T04:08:43.340Z,3.00
2023-05-10T04:11:15.291Z,2.67
2023-05-10T04:13:45.242Z,2.85
2023-05-10T04:16:15.180Z,2.80
2023-05-10T04:18:45.166Z,3.05
2023-05-10T04:21:20.749Z,3.00
2023-05-10T04:23:50.770Z,2.95
2023-05-10T04:26:21.340Z,2.80
2023-05-10T04:28:51.383Z,3.20
2023-05-10T04:31:21.429Z,2.78
2023-05-10T04:33:51.607Z,3.55
2023-05-10T04:36:24.303Z,3.50
2023-05-10T04:38:54.015Z,3.08
2023-05-10T04:41:24.014Z,3.00
2023-05-10T04:43:53.887Z,3.20
2023-05-10T04:46:24.230Z,3.05
2023-05-10T04:48:54.084Z,3.70
2023-05-10T04:51:26.345Z,3.13
2023-05-10T04:54:05.363Z,3.22
2023-05-10T04:56:37.098Z,3.15
2023-05-10T04:59:06.963Z,3.42
2023-05-10T05:01:37.036Z,3.13
2023-05-10T05:04:07.985Z,3.22
2023-05-10T05:06:44.733Z,3.33
2023-05-10T05:09:14.568Z,3.42
2023-05-10T05:11:44.470Z,3.05
2023-05-10T05:14:14.234Z,3.42
2023-05-10T05:16:44.083Z,2.95
2023-05-10T05:19:13.846Z,2.75
2023-05-10T05:21:46.200Z,3.10
2023-05-10T05:24:16.153Z,3.50
2023-05-10T05:26:45.964Z,3.10
2023-05-10T05:29:16.913Z,3.50
2023-05-10T05:31:48.485Z,2.83
2023-05-10T05:34:18.247Z,3.15
2023-05-10T05:36:50.505Z,3.05
2023-05-10T05:39:20.492Z,3.25
2023-05-10T05:41:50.236Z,3.38
2023-05-10T05:44:19.878Z,3.20
2023-05-10T05:46:49.596Z,3.00
2023-05-10T05:49:19.272Z,3.60
2023-05-10T05:51:51.760Z,3.47
2023-05-10T05:54:21.524Z,3.25
2023-05-10T05:56:51.173Z,3.30
2023-05-10T05:59:20.866Z,3.17
2023-05-10T06:01:50.581Z,3.25
2023-05-10T06:04:20.720Z,2.80
2023-05-10T06:06:53.103Z,2.92
2023-05-10T06:09:24.865Z,2.88
2023-05-10T06:11:54.616Z,2.90
2023-05-10T06:14:24.381Z,3.42
2023-05-10T06:16:54.079Z,3.20
2023-05-10T06:19:23.811Z,3.03
2023-05-10T06:21:56.216Z,3.33
2023-05-10T06:24:27.570Z,3.40
2023-05-10T06:26:57.541Z,3.47
2023-05-10T06:29:27.374Z,3.67
2023-05-10T06:31:57.192Z,3.30
2023-05-10T06:34:27.127Z,3.53
2023-05-10T06:36:59.494Z,3.38
2023-05-10T06:39:30.489Z,3.10
2023-05-10T06:42:00.374Z,3.45
2023-05-10T06:44:35.643Z,3.10
2023-05-10T06:47:05.630Z,3.92
2023-05-10T06:49:35.442Z,2.75
2023-05-10T06:52:07.952Z,3.08
2023-05-10T06:54:37.724Z,3.17
2023-05-10T06:57:16.145Z,2.97
2023-05-10T06:59:49.778Z,3.35
2023-05-10T07:02:19.680Z,3.58
2023-05-10T07:04:51.324Z,3.38
2023-05-10T07:07:23.851Z,3.00
2023-05-10T07:09:53.682Z,3.65
2023-05-10T07:12:23.465Z,3.78
2023-05-10T07:14:53.355Z,3.75
2023-05-10T07:17:23.292Z,3.80
2023-05-10T07:19:53.326Z,3.65
2023-05-10T07:22:25.890Z,4.72
2023-05-10T07:24:55.560Z,3.78
2023-05-10T07:27:25.304Z,4.28
2023-05-10T07:29:55.757Z,4.10
2023-05-10T07:32:25.559Z,4.50
2023-05-10T07:34:55.641Z,4.88
2023-05-10T07:37:27.959Z,4.28
2023-05-10T07:39:57.753Z,4.50
2023-05-10T07:42:27.437Z,4.43
2023-05-10T07:44:57.129Z,4.60
2023-05-10T07:47:27.294Z,4.13
2023-05-10T07:49:57.155Z,5.35
2023-05-10T07:52:29.515Z,4.43
2023-05-10T07:54:59.391Z,5.13
2023-05-10T07:57:29.131Z,4.57
2023-05-10T07:59:58.837Z,5.13
2023-05-10T08:02:28.584Z,5.15
2023-05-10T08:04:58.224Z,5.70
2023-05-10T08:07:31.020Z,4.95
2023-05-10T08:10:00.682Z,4.97
2023-05-10T08:12:30.297Z,5.00
2023-05-10T08:15:00.026Z,4.68
2023-05-10T08:17:29.801Z,5.10
2023-05-10T08:19:59.490Z,5.68
2023-05-10T08:22:31.801Z,4.75
2023-05-10T08:25:01.484Z,5.03
2023-05-10T08:27:31.240Z,5.07
2023-05-10T08:30:01.772Z,4.93
2023-05-10T08:32:32.205Z,4.80
2023-05-10T08:35:01.928Z,5.05
2023-05-10T08:37:36.659Z,4.80
2023-05-10T08:40:07.212Z,5.55
2023-05-10T08:42:40.274Z,4.75
2023-05-10T08:45:11.894Z,5.78
2023-05-10T08:47:42.029Z,5.30
2023-05-10T08:50:13.229Z,5.78
2023-05-10T08:52:45.928Z,6.10
2023-05-10T08:55:16.242Z,5.47
2023-05-10T08:57:46.436Z,5.78
2023-05-10T09:00:17.946Z,5.50
2023-05-10T09:02:48.152Z,5.72
2023-05-10T09:05:19.335Z,5.50
2023-05-10T09:07:52.143Z,5.90
2023-05-10T09:10:22.026Z,5.72
2023-05-10T09:12:52.513Z,6.25
2023-05-10T09:15:22.854Z,5.93
2023-05-10T09:17:53.521Z,5.90
2023-05-10T09:20:23.705Z,6.35
2023-05-10T09:22:56.155Z,6.32
2023-05-10T09:25:25.991Z,6.93
2023-05-10T09:27:56.258Z,6.65
2023-05-10T09:30:30.416Z,6.40
2023-05-10T09:33:01.098Z,6.03
2023-05-10T09:38:05.998Z,6.32
2023-05-10T09:40:36.064Z,6.97
2023-05-10T09:43:07.423Z,6.90
2023-05-10T09:45:39.297Z,7.03
2023-05-10T09:48:09.787Z,6.28
2023-05-10T09:50:39.988Z,6.45
2023-05-10T09:53:12.369Z,7.05
2023-05-10T09:55:45.848Z,7.20
2023-05-10T09:58:16.385Z,6.78
2023-05-10T10:00:48.964Z,7.38
2023-05-10T10:03:21.462Z,7.75
2023-05-10T10:05:52.410Z,7.50
2023-05-10T10:08:24.822Z,7.88
2023-05-10T10:10:54.626Z,6.88
2023-05-10T10:13:24.397Z,7.53
2023-05-10T10:15:54.788Z,7.13
2023-05-10T10:18:28.310Z,7.35
2023-05-10T10:20:58.259Z,7.93
2023-05-10T10:23:31.405Z,7.18
2023-05-10T10:26:01.305Z,7.43
2023-05-10T10:28:48.520Z,8.40
2023-05-10T10:31:25.196Z,7.85
2023-05-10T10:34:08.233Z,8.35
2023-05-10T10:36:44.149Z,7.78
2023-05-10T10:39:17.162Z,7.80
2023-05-10T10:41:59.996Z,8.13
2023-05-10T10:45:11.390Z,7.35
2023-05-10T10:48:02.259Z,7.47
2023-05-10T10:54:49.878Z,8.35
2023-05-10T10:57:47.831Z,8.10
2023-05-10T11:01:11.319Z,7.68
2023-05-10T11:04:12.443Z,7.88
2023-05-10T11:06:52.589Z,7.88
2023-05-10T11:09:43.737Z,7.63
2023-05-10T11:28:45.679Z,8.63
2023-05-10T11:31:18.101Z,9.20
2023-05-10T11:33:48.814Z,9.07
2023-05-10T11:36:19.793Z,8.38
2023-05-10T11:38:50.530Z,9.52
2023-05-10T11:43:55.630Z,8.45
2023-05-10T11:46:28.088Z,8.70
2023-05-10T11:49:02.876Z,8.85
2023-05-10T11:51:33.301Z,9.18
2023-05-10T11:54:03.846Z,9.73
2023-05-10T11:56:36.965Z,8.52
2023-05-10T11:59:07.969Z,9.45
2023-05-10T12:01:38.153Z,9.63
2023-05-10T12:04:08.571Z,10.38
2023-05-10T12:06:44.584Z,9.30
2023-05-10T12:09:14.849Z,9.80
2023-05-10T12:11:47.654Z,9.13
2023-05-10T12:14:17.785Z,8.98
2023-05-10T12:16:48.144Z,9.68
2023-05-10T12:19:22.544Z,10.60
2023-05-10T12:21:53.144Z,10.15
2023-05-10T12:24:23.426Z,9.60
2023-05-10T12:26:56.108Z,10.77
2023-05-10T12:29:26.258Z,10.18
2023-05-10T12:31:57.483Z,10.10
2023-05-10T12:34:31.443Z,9.30
2023-05-10T12:37:01.999Z,9.15
2023-05-10T12:39:43.139Z,9.80
2023-05-10T12:42:15.954Z,9.15
2023-05-10T12:44:46.152Z,9.27
2023-05-10T12:47:16.281Z,8.98
2023-05-10T12:49:46.623Z,10.10
2023-05-10T12:52:16.895Z,9.55
2023-05-10T12:54:47.370Z,10.00
2023-05-10T12:57:20.690Z,9.18
2023-05-10T12:59:50.941Z,9.48
2023-05-10T13:02:22.690Z,8.38
2023-05-10T13:04:53.379Z,9.20
2023-05-10T13:09:53.346Z,8.38
2023-05-10T13:12:26.013Z,8.32
2023-05-10T13:14:56.197Z,8.85
2023-05-10T13:17:26.459Z,8.25
2023-05-10T13:19:56.744Z,9.00
2023-05-10T13:22:39.157Z,8.27
2023-05-10T13:25:10.694Z,8.43
2023-05-10T13:27:43.557Z,7.15
2023-05-10T13:30:14.712Z,7.65
2023-05-10T13:32:45.129Z,6.97
2023-05-10T13:35:15.123Z,7.78
2023-05-10T13:37:45.521Z,7.55
2023-05-10T13:40:16.891Z,7.03
2023-05-10T13:42:49.866Z,7.70
2023-05-10T13:45:20.046Z,6.82
2023-05-10T13:47:50.258Z,7.45
2023-05-10T13:50:20.927Z,7.05
2023-05-10T13:52:51.117Z,6.13
2023-05-10T13:55:21.268Z,7.13
2023-05-10T13:57:54.298Z,6.38
2023-05-10T14:00:24.485Z,6.65
2023-05-10T14:02:54.813Z,6.05
2023-05-10T14:05:26.283Z,6.20
2023-05-10T14:07:56.911Z,5.00
2023-05-10T14:10:27.169Z,3.40
2023-05-10T14:13:00.289Z,3.38
2023-05-10T14:15:30.573Z,3.60
2023-05-10T14:18:00.771Z,3.42
2023-05-10T14:20:31.263Z,3.75
2023-05-10T14:23:01.382Z,4.28
2023-05-10T14:25:31.846Z,3.53
2023-05-10T14:28:04.638Z,3.75
2023-05-10T14:30:35.848Z,3.28
2023-05-10T14:33:06.839Z,3.35
2023-05-10T14:35:37.130Z,3.47
2023-05-10T14:38:07.295Z,3.00
2023-05-10T14:40:37.673Z,2.90
2023-05-10T14:43:10.575Z,3.28
2023-05-10T14:45:40.705Z,2.80
2023-05-10T14:48:16.387Z,2.63
2023-05-10T14:50:46.681Z,2.85
2023-05-10T14:53:16.837Z,2.88
2023-05-10T14:55:47.323Z,3.03
2023-05-10T14:58:20.379Z,3.03
2023-05-10T15:00:50.459Z,2.83
2023-05-10T15:03:20.964Z,2.75
2023-05-10T15:08:21.220Z,2.45
2023-05-10T15:10:51.376Z,2.65
2023-05-10T15:13:24.144Z,2.67
2023-05-10T15:15:54.466Z,3.40
2023-05-10T15:18:27.846Z,3.13
2023-05-10T15:20:59.690Z,2.92
2023-05-10T15:23:31.032Z,2.67
2023-05-10T15:26:01.082Z,3.40
2023-05-10T15:28:34.514Z,3.00
2023-05-10T15:31:04.795Z,3.13
2023-05-10T15:33:35.036Z,3.60
2023-05-10T15:36:05.466Z,3.85
2023-05-10T15:38:35.503Z,3.30
2023-05-10T15:41:05.531Z,3.45
2023-05-10T16:40:32.967Z,2.97
2023-05-10T16:43:02.822Z,2.92
2023-05-10T16:45:34.254Z,2.97
2023-05-10T16:48:07.568Z,2.30
2023-05-10T16:50:51.253Z,2.22
2023-05-10T16:57:13.604Z,2.10
2023-05-10T16:59:43.652Z,2.00
2023-05-10T17:02:22.271Z,2.25
2023-05-10T17:04:53.358Z,1.85
2023-05-10T17:18:02.984Z,1.50
2023-05-10T17:20:35.694Z,1.70
2023-05-10T17:23:05.498Z,1.05
2023-05-10T17:25:38.142Z,1.23
2023-05-10T17:28:07.935Z,0.80
2023-05-10T17:30:51.345Z,1.10
2023-05-10T17:33:50.004Z,0.90
2023-05-10T17:44:30.346Z,1.00
2023-05-10T17:47:17.859Z,0.90
2023-05-10T17:55:27.260Z,0.90
2023-05-10T17:57:58.749Z,0.88
2023-05-10T18:00:28.883Z,0.88
2023-05-10T18:02:58.635Z,1.23
2023-05-10T18:05:28.538Z,0.98
2023-05-10T18:07:58.327Z,1.10
2023-05-10T18:10:33.719Z,1.35
2023-05-10T18:13:17.538Z,1.00
2023-05-10T18:22:25.926Z,1.10
2023-05-10T18:35:31.976Z,0.90
2023-05-10T18:38:26.312Z,1.00
2023-05-10T18:41:22.631Z,1.25
2023-05-10T18:43:52.653Z,1.17
2023-05-10T18:46:22.722Z,1.10
2023-05-10T18:48:52.630Z,0.90
2023-05-10T18:51:26.600Z,1.30
2023-05-10T18:53:57.561Z,1.30
2023-05-10T18:56:29.913Z,1.10
2023-05-10T18:59:01.496Z,1.00
2023-05-10T19:01:31.529Z,1.10
2023-05-10T19:04:02.446Z,1.25
2023-05-10T19:06:36.522Z,1.10
2023-05-10T19:09:08.975Z,1.20
2023-05-10T19:11:40.171Z,0.95
2023-05-10T19:14:10.688Z,1.38
2023-05-10T19:16:42.299Z,1.20
2023-05-10T19:19:17.531Z,1.45
2023-05-10T19:21:50.172Z,1.10
2023-05-10T19:24:24.105Z,1.33
2023-05-10T19:26:55.520Z,1.20
2023-05-10T19:29:27.215Z,1.30
2023-05-10T19:32:00.947Z,1.23
2023-05-10T19:34:31.528Z,0.90
2023-05-10T19:37:04.847Z,1.25
2023-05-10T19:39:34.861Z,1.30
2023-05-10T19:42:05.557Z,1.20
2023-05-10T19:47:06.017Z,1.45
2023-05-10T19:49:36.428Z,1.50
2023-05-10T19:52:12.268Z,1.33
2023-05-10T19:54:42.987Z,1.58
2023-05-10T19:59:44.917Z,1.42
2023-05-10T20:02:15.080Z,1.30
2023-05-10T20:04:45.467Z,1.52
2023-05-10T20:07:22.894Z,1.60
2023-05-10T20:09:52.714Z,1.30
2023-05-10T20:12:22.513Z,1.63
2023-05-10T20:14:52.404Z,1.30
2023-05-10T20:17:23.647Z,0.95
2023-05-10T20:19:54.589Z,1.42
2023-05-10T20:22:31.076Z,1.40
2023-05-10T20:25:04.888Z,1.05
2023-05-10T20:27:35.899Z,1.05
2023-05-10T20:30:09.485Z,0.95
2023-05-10T20:32:41.248Z,1.05
2023-05-10T20:35:16.143Z,1.20
2023-05-10T20:38:09.249Z,1.40
2023-05-10T20:41:07.845Z,1.20
2023-05-10T20:43:59.458Z,1.00
2023-05-10T20:46:30.858Z,1.10
2023-05-10T20:49:01.445Z,1.05
2023-05-10T20:51:33.322Z,1.38
2023-05-10T20:54:09.827Z,1.58
2023-05-10T20:56:41.279Z,1.55
2023-05-10T20:59:20.469Z,1.58
2023-05-10T21:01:53.607Z,2.28
2023-05-10T21:04:27.446Z,1.90
2023-05-10T21:06:58.849Z,2.40
2023-05-10T21:09:32.154Z,2.38
2023-05-10T21:12:03.550Z,2.45
2023-05-10T21:14:35.583Z,2.60
2023-05-10T21:17:06.101Z,2.50
2023-05-10T21:19:36.722Z,2.60
2023-05-10T21:22:12.119Z,1.77
2023-05-10T21:24:45.643Z,2.00
2023-05-10T21:27:16.675Z,2.28
2023-05-10T21:29:47.503Z,2.00
2023-05-10T21:34:48.126Z,2.03
2023-05-10T21:37:19.360Z,1.80
2023-05-10T21:39:53.088Z,1.80
2023-05-10T21:42:23.354Z,1.70
2023-05-10T21:44:53.893Z,1.75
2023-05-10T21:47:23.709Z,1.85
2023-05-10T21:49:53.598Z,2.03
2023-05-10T21:52:23.494Z,2.00
2023-05-10T21:54:55.916Z,2.03
2023-05-10T21:57:25.786Z,2.00
2023-05-10T21:59:55.776Z,1.60
2023-05-10T22:02:25.826Z,1.50
2023-05-10T22:04:55.916Z,1.20
2023-05-10T22:07:25.783Z,2.30
2023-05-10T22:09:58.739Z,2.45
2023-05-10T22:12:28.656Z,2.00
2023-05-10T22:15:09.473Z,1.85
2023-05-10T22:17:41.044Z,2.70
2023-05-10T22:20:12.245Z,2.60
2023-05-10T22:22:42.095Z,1.70
2023-05-10T22:25:14.720Z,2.03
2023-05-10T22:27:44.633Z,2.33
2023-05-10T22:30:15.390Z,2.20
2023-05-10T22:35:14.966Z,2.42
2023-05-10T22:37:44.828Z,3.47
2023-05-10T22:40:17.943Z,3.13
2023-05-10T22:42:47.889Z,2.80
2023-05-10T22:45:17.946Z,3.75
2023-05-10T22:47:47.906Z,4.18
2023-05-10T22:50:18.065Z,3.17
2023-05-10T22:52:48.142Z,3.28
2023-05-10T22:55:20.800Z,4.75
2023-05-10T22:57:50.756Z,3.60
2023-05-10T23:00:21.033Z,3.70
2023-05-10T23:02:51.007Z,3.30
2023-05-10T23:05:21.449Z,4.10
2023-05-10T23:07:53.455Z,4.13
2023-05-10T23:10:26.100Z,3.80
2023-05-10T23:12:56.180Z,3.80
2023-05-10T23:15:26.015Z,4.70
2023-05-10T23:17:56.095Z,4.15
2023-05-10T23:20:25.979Z,4.90
2023-05-10T23:22:56.409Z,4.65
2023-05-10T23:25:28.862Z,4.35
2023-05-10T23:27:58.691Z,4.00
2023-05-10T23:30:28.503Z,4.80
2023-05-10T23:32:58.401Z,4.90
2023-05-10T23:35:28.321Z,4.40
2023-05-10T23:37:58.360Z,4.05
2023-05-10T23:40:30.914Z,5.38
2023-05-10T23:43:00.771Z,5.22
2023-05-10T23:45:30.790Z,5.63
2023-05-10T23:48:00.712Z,5.55
2023-05-10T23:50:30.695Z,5.50
2023-05-10T23:53:00.604Z,5.25
2023-05-10T23:55:33.051Z,5.50
2023-05-10T23:58:02.922Z,5.38
